Fdl, Wisconsin
Current Conditions -  °F | °C
As of 9:53 PM on Sunday 21 Dec 2014 (Local Time) from KFLD Reporting Station
Overcast Overcast  
Wind Chill: -3°   Ceiling: 1900
Heat Index:   Visibility: 9mi
Dew Point: -2°   Wind: 16mph
Humidity: 76%   Direction: 180°S
Pressure: 29.98"   Gusts: NA
Location:  43.7436°N, 88.3886°W
Report Text: KFLD 220353Z AUTO 18014KT 9SM BKN019 OVC033 02/M02 A2998 RMK AO2 SLP159 T00221017
Loading
Personal Weather Stations






























Interactive Weather Map New forecast layout! Learn more

10-Day Weather Forecast

Advertisements
Track Severe Weather on mobile